Share

Guatemala, Guatemala

La Aurora International (MGGT) Elev 4885 ft | 14.58 °N, 90.53 °W | Change Station

Current weather conditions updated 40 minutes ago

Partly Cloudy
Partly Cloudy
61 °F
Feels Like 61 °F
N
16
Wind Variable Wind from North
Sunrise 5:45 AM
Sunset 6:16 PM
Moon Waning Gibbous

Today is forecast to be nearly the same temperature as yesterday.

Pressure 30.30 in
Visibility 6.2 miles
Clouds Few 1400 ft
Dew Point 57 °F
Humidity 88%
Rainfall 0.00 in
Snow Depth Not available.
UV 0 out of 16
Pollen Not available.
Air Quality Not available.
Flu Activity Not available.
METAR MGGT 200700Z 36014KT 9999 FEW014 16/14 Q1026 A3030

More Conditions Fewer Conditions

Pressure 30.30 in
Visibility 6.2 miles
Clouds Few 1400 ft
Dew Point 57 °F
Humidity 88%
Rainfall 0.00 in
Snow Depth Not available.
UV 0 out of 16
Pollen Not available.
Air Quality Not available.
Flu Activity Not available.
METAR MGGT 200700Z 36014KT 9999 FEW014 16/14 Q1026 A3030

More Conditions Fewer Conditions

10-Day Weather Forecast

Almanac

Astronomy

Apr. 20, 2014 Rise Set
Actual Time 5:45 AM CST 6:16 PM CST
Civil Twilight 5:23 AM CST 6:38 PM CST
Nautical Twilight 4:57 AM CST 7:04 PM CST
Astronomical Twilight 4:31 AM CST 7:30 PM CST
Moon 11:33 PM CST 10:24 AM CST
Length of Visible Light 13h 15m
Length of Day
12h 31m
Tomorrow will be 0m 44s longer.
Waning Gibbous, 72% of the Moon is Illuminated
Today
Waning Gibbous
Apr 22
Last Quarter
Apr 29
New
May 6
First Quarter
May 14
Full

Yesterday's Extremes

Country Highs Country Lows

Community

  • Sunny day at the coast-Cape Arago Lighthouse
    Sunny day at the coast-Cape Arago Lighthouse
  • Cherry Blossoms
    Cherry Blossoms
  • White-Crowned Sparrow
    White-Crowned Sparrow
  • New Day
    New Day
  • Happy Easter!
    Happy Easter!

WunderPhotos

Upload Photos

1,703,084 photos uploaded!

WunderBlogs® & News

Nearby

Snow Depth

Not available.

Coastal Water Temperatures

Place Temperature
No Stations Reporting

Earthquake Activity

City Distance Mag. Time & Date
No recent earthquake activity has been reported nearby.
Minimum magnitude displayed is 2.5.

Nearby Weather Stations

Station Location Temp. Dew Point Humidity Wind Precip. Elev Updated Type
Zona 12, Guatemala 59.5 °F 58 °F 93% North  at  8.0 mph 0.00 in / hr 4810 ft 1:36 AM CST Normal
Acatan zona 16, Guatemala 59.5 °F 49 °F 68% North  at  4.5 mph 0.00 in / hr 5154 ft 12:42 AM CST Rapid Fire
Casa Aleluya, San Bartolome 53.6 °F 49 °F 84% West  at  0.0 mph 0.00 in / hr 6811 ft 1:40 AM CST Rapid Fire

Show More Stations Show Fewer Stations

What do you think?

We're not finished. Please let us know what you like, what you don't like, and what you are still missing.